Time;durP1;ratioP1;P1;durP2;ratioP2;P2;SDS_P1;SDS_P2;PMS_P1;PMS_P2;Temp;Humidity;BMP_temperature;BMP_pressure;BME280_temperature;BME280_humidity;BME280_pressure;Samples;Min_cycle;Max_cycle;Signal;HPM_P1;HPM_P2
2022/02/18 00:01:27;;;;;;;13.50;0.98;;;6.80;99.90;;;;;;6147991;23;20055;-80
2022/02/18 00:03:54;;;;;;;10.60;0.60;;;6.70;99.90;;;;;;6146419;23;20343;-80
2022/02/18 00:06:19;;;;;;;12.02;0.80;;;6.70;99.90;;;;;;6146344;23;20095;-79
2022/02/18 00:08:45;;;;;;;11.45;0.60;;;6.70;99.90;;;;;;6121258;23;20013;-79
2022/02/18 00:11:11;;;;;;;14.93;0.70;;;6.70;99.90;;;;;;6121720;23;20447;-80
2022/02/18 00:13:37;;;;;;;16.55;0.77;;;6.80;99.90;;;;;;6147749;23;20020;-79
2022/02/18 00:16:03;;;;;;;13.15;1.63;;;6.80;99.90;;;;;;6121772;23;20006;-80
2022/02/18 00:18:29;;;;;;;13.63;0.70;;;6.80;99.90;;;;;;6121051;23;20014;-80
2022/02/18 00:20:55;;;;;;;13.18;0.90;;;6.90;99.90;;;;;;6122000;23;20522;-78
2022/02/18 00:23:20;;;;;;;13.75;1.05;;;6.90;99.90;;;;;;6145540;23;20068;-78
2022/02/18 00:25:46;;;;;;;10.50;0.60;;;6.90;99.90;;;;;;6146328;23;20020;-80
2022/02/18 00:28:11;;;;;;;11.13;0.60;;;6.80;99.90;;;;;;6121630;23;20014;-79
2022/02/18 00:30:37;;;;;;;8.20;0.60;;;6.80;99.90;;;;;;6121072;23;20394;-80
2022/02/18 00:33:03;;;;;;;13.63;1.08;;;6.80;99.90;;;;;;6148189;23;20038;-79
2022/02/18 00:35:29;;;;;;;13.32;1.02;;;6.90;99.90;;;;;;6121322;23;20040;-79
2022/02/18 00:37:54;;;;;;;7.72;0.40;;;6.80;99.90;;;;;;6121164;23;20287;-79
2022/02/18 00:40:21;;;;;;;9.07;0.73;;;6.70;99.90;;;;;;6121912;23;20530;-78
2022/02/18 00:42:47;;;;;;;7.30;0.75;;;6.70;99.90;;;;;;6145473;23;20359;-79
2022/02/18 00:45:13;;;;;;;6.20;0.40;;;6.70;99.90;;;;;;6146162;23;20431;-79
2022/02/18 00:47:39;;;;;;;9.75;1.08;;;6.70;99.90;;;;;;6146123;23;20013;-79
2022/02/18 00:50:05;;;;;;;6.25;0.50;;;6.70;99.90;;;;;;6146736;23;20018;-78
2022/02/18 00:52:31;;;;;;;5.97;0.63;;;6.70;99.90;;;;;;6144552;23;20017;-78
2022/02/18 00:54:57;;;;;;;8.85;0.50;;;6.70;99.90;;;;;;6121396;23;20005;-78
2022/02/18 00:57:22;;;;;;;5.95;0.40;;;6.60;99.90;;;;;;6146330;23;20055;-78
2022/02/18 00:59:48;;;;;;;3.75;0.60;;;6.50;99.90;;;;;;6120991;23;20005;-78
2022/02/18 01:02:14;;;;;;;5.20;0.30;;;6.50;99.90;;;;;;6146295;23;20013;-78
2022/02/18 01:04:40;;;;;;;7.18;0.50;;;6.50;99.90;;;;;;6145405;23;20020;-78
2022/02/18 01:07:06;;;;;;;5.35;0.30;;;6.40;99.90;;;;;;6121330;23;20009;-79
2022/02/18 01:09:34;;;;;;;6.25;0.47;;;6.50;99.90;;;;;;6121648;23;20121;-78
2022/02/18 01:11:59;;;;;;;5.22;0.28;;;6.40;99.90;;;;;;6121455;23;20045;-78
2022/02/18 01:14:25;;;;;;;4.72;0.22;;;6.40;99.90;;;;;;6145730;23;20014;-78
2022/02/18 01:16:52;;;;;;;3.58;0.30;;;6.40;99.90;;;;;;6145622;23;20065;-79
2022/02/18 01:19:18;;;;;;;3.05;0.20;;;6.30;99.90;;;;;;6121359;23;20032;-78
2022/02/18 01:21:44;;;;;;;3.88;0.20;;;6.20;99.90;;;;;;6120375;23;20349;-78
2022/02/18 01:24:09;;;;;;;6.88;0.57;;;6.30;99.90;;;;;;6121114;23;20097;-78
2022/02/18 01:26:35;;;;;;;5.68;0.40;;;6.20;99.90;;;;;;6144760;23;20088;-78
2022/02/18 01:29:01;;;;;;;2.95;0.20;;;6.20;99.90;;;;;;6146064;23;20013;-78
2022/02/18 01:31:28;;;;;;;4.10;0.30;;;6.20;99.90;;;;;;6120952;23;20017;-78
2022/02/18 01:33:55;;;;;;;5.30;0.20;;;6.10;99.90;;;;;;6145734;23;20017;-78
2022/02/18 01:36:22;;;;;;;3.40;0.40;;;6.10;99.90;;;;;;6145048;23;20008;-78
2022/02/18 01:38:52;;;;;;;4.25;0.30;;;6.10;99.90;;;;;;6121622;23;20092;-78
2022/02/18 01:41:18;;;;;;;4.00;0.40;;;6.10;99.90;;;;;;6145686;23;20096;-78
2022/02/18 01:44:06;;;;;;;2.60;0.22;;;6.00;99.90;;;;;;6123415;23;20017;-78
2022/02/18 01:46:33;;;;;;;5.07;0.30;;;6.00;99.90;;;;;;6122860;23;20506;-78
2022/02/18 01:49:02;;;;;;;2.97;0.25;;;6.00;99.90;;;;;;6123161;23;20017;-78
2022/02/18 01:51:28;;;;;;;4.13;0.43;;;6.00;99.90;;;;;;6122735;23;20516;-78
2022/02/18 01:53:55;;;;;;;3.92;0.30;;;6.00;99.90;;;;;;6123569;23;20104;-78
2022/02/18 01:56:22;;;;;;;3.00;0.30;;;6.00;99.90;;;;;;6147906;23;20009;-78
2022/02/18 01:58:48;;;;;;;6.32;0.30;;;5.90;99.90;;;;;;6122486;23;20048;-78
2022/02/18 02:01:15;;;;;;;2.33;0.25;;;5.90;99.90;;;;;;6123184;23;20016;-78
2022/02/18 02:03:41;;;;;;;5.57;0.30;;;5.90;99.90;;;;;;6146309;23;20025;-79
2022/02/18 02:06:08;;;;;;;2.25;0.30;;;5.90;99.90;;;;;;6122875;23;20009;-79
2022/02/18 02:08:36;;;;;;;5.85;0.30;;;5.90;99.90;;;;;;6147564;23;20033;-79
2022/02/18 02:11:02;;;;;;;5.90;0.73;;;6.00;99.90;;;;;;6123486;23;20010;-78
2022/02/18 02:13:29;;;;;;;4.25;0.40;;;6.10;99.90;;;;;;6122793;23;20045;-78
2022/02/18 02:15:55;;;;;;;4.05;0.30;;;6.00;99.90;;;;;;6147708;23;20009;-78
2022/02/18 02:18:21;;;;;;;5.93;0.40;;;6.10;99.90;;;;;;6146627;23;20092;-79
2022/02/18 02:20:46;;;;;;;6.35;0.50;;;6.10;99.90;;;;;;6122714;23;20405;-78
2022/02/18 02:23:14;;;;;;;4.97;0.40;;;6.20;99.90;;;;;;6147058;23;20072;-80
2022/02/18 02:25:39;;;;;;;3.55;0.40;;;6.10;99.90;;;;;;6147706;23;20443;-78
2022/02/18 02:28:16;;;;;;;2.85;0.35;;;6.20;99.90;;;;;;6147290;23;20064;-80
2022/02/18 02:30:44;;;;;;;4.22;0.40;;;6.10;99.90;;;;;;6147106;23;20013;-78
2022/02/18 02:33:12;;;;;;;5.20;0.60;;;6.10;99.90;;;;;;6121855;23;20026;-79
2022/02/18 02:35:40;;;;;;;3.13;0.47;;;6.10;99.90;;;;;;6122984;23;20092;-78
2022/02/18 02:38:06;;;;;;;3.83;0.40;;;6.20;99.90;;;;;;6148831;23;20115;-78
2022/02/18 02:40:32;;;;;;;5.32;0.60;;;6.20;99.90;;;;;;6122263;23;20068;-78
2022/02/18 02:42:58;;;;;;;6.70;0.50;;;6.20;99.90;;;;;;6122492;23;20064;-80
2022/02/18 02:45:24;;;;;;;5.95;0.98;;;6.20;99.90;;;;;;6122751;23;20016;-78
2022/02/18 02:47:52;;;;;;;6.15;0.95;;;6.20;99.90;;;;;;6121673;23;20017;-78
2022/02/18 02:50:29;;;;;;;6.15;0.70;;;6.30;99.90;;;;;;6124920;23;20024;-78
2022/02/18 02:53:00;;;;;;;7.30;0.70;;;6.20;99.90;;;;;;6123743;23;20064;-78
2022/02/18 02:55:28;;;;;;;6.22;0.80;;;6.30;99.90;;;;;;6146731;23;20010;-78
2022/02/18 02:57:54;;;;;;;9.68;1.60;;;6.30;99.90;;;;;;6122447;23;20009;-80
2022/02/18 03:00:20;;;;;;;7.80;0.98;;;6.30;99.90;;;;;;6122590;23;20366;-80
2022/02/18 03:02:46;;;;;;;10.75;1.33;;;6.30;99.90;;;;;;6121425;23;20052;-78
2022/02/18 03:05:13;;;;;;;7.60;1.20;;;6.30;99.90;;;;;;6122598;23;20490;-78
2022/02/18 03:07:40;;;;;;;6.68;0.90;;;6.30;99.90;;;;;;6121978;23;20017;-78
2022/02/18 03:10:21;;;;;;;9.00;0.90;;;6.30;99.90;;;;;;6125464;23;20020;-78
2022/02/18 03:12:47;;;;;;;11.43;0.70;;;6.30;99.90;;;;;;6122224;23;20104;-79
2022/02/18 03:15:13;;;;;;;10.20;0.80;;;6.40;99.90;;;;;;6123104;23;20581;-79
2022/02/18 03:17:40;;;;;;;7.82;0.60;;;6.30;99.90;;;;;;6122079;23;20087;-78
2022/02/18 03:20:23;;;;;;;6.20;0.90;;;6.30;99.90;;;;;;6147000;23;20006;-78
2022/02/18 03:22:50;;;;;;;7.10;0.68;;;6.40;99.90;;;;;;6121852;23;20038;-79
2022/02/18 03:25:15;;;;;;;6.03;0.60;;;6.30;99.90;;;;;;6098174;23;20017;-79
2022/02/18 03:27:42;;;;;;;7.57;0.50;;;6.40;99.90;;;;;;6097093;23;20014;-77
2022/02/18 03:30:09;;;;;;;8.25;0.60;;;6.40;99.90;;;;;;6098173;23;20009;-78
2022/02/18 03:32:36;;;;;;;3.47;0.40;;;6.40;99.90;;;;;;6073377;23;20029;-78
2022/02/18 03:35:04;;;;;;;3.90;0.40;;;6.30;99.90;;;;;;6122353;23;20084;-78
2022/02/18 03:37:35;;;;;;;7.65;0.40;;;6.30;99.90;;;;;;6121543;23;20009;-78
2022/02/18 03:40:10;;;;;;;5.78;0.30;;;6.40;99.90;;;;;;6099543;23;20080;-78
2022/02/18 03:42:36;;;;;;;5.57;0.40;;;6.30;99.90;;;;;;6097870;23;20017;-78
2022/02/18 03:45:02;;;;;;;3.25;0.30;;;6.30;99.90;;;;;;6121415;23;20116;-78
2022/02/18 03:47:28;;;;;;;7.38;0.63;;;6.30;99.90;;;;;;6097159;23;20093;-79
2022/02/18 03:49:58;;;;;;;5.90;0.40;;;6.40;99.90;;;;;;6098432;23;20757;-78
2022/02/18 03:52:24;;;;;;;5.55;0.47;;;6.30;99.90;;;;;;6121171;23;20104;-78
2022/02/18 03:54:49;;;;;;;7.25;0.40;;;6.40;99.90;;;;;;6097472;23;20013;-78
2022/02/18 03:57:15;;;;;;;4.75;0.50;;;6.40;99.90;;;;;;6097947;23;20021;-78
2022/02/18 03:59:40;;;;;;;4.95;0.30;;;6.30;99.90;;;;;;6097501;23;20080;-78
2022/02/18 04:02:06;;;;;;;7.55;0.30;;;6.40;99.90;;;;;;6097224;23;20096;-78
2022/02/18 04:04:33;;;;;;;6.18;0.45;;;6.40;99.90;;;;;;6121520;23;20013;-78
2022/02/18 04:07:20;;;;;;;4.10;0.20;;;6.40;99.90;;;;;;6121577;23;20064;-78
2022/02/18 04:09:50;;;;;;;5.17;0.30;;;6.40;99.90;;;;;;6097626;23;20016;-79
2022/02/18 04:12:18;;;;;;;5.15;0.45;;;6.40;99.90;;;;;;6098293;23;20555;-78
2022/02/18 04:14:46;;;;;;;4.97;0.30;;;6.40;99.90;;;;;;6120559;23;20005;-78
2022/02/18 04:17:15;;;;;;;2.80;0.15;;;6.40;99.90;;;;;;6098148;23;20064;-78
2022/02/18 04:19:45;;;;;;;5.60;0.40;;;6.40;99.90;;;;;;6098191;23;20021;-78
2022/02/18 04:22:19;;;;;;;10.20;0.50;;;6.40;99.90;;;;;;6098775;23;20020;-78
2022/02/18 04:24:44;;;;;;;7.53;0.30;;;6.40;99.90;;;;;;6115809;23;20052;-78
2022/02/18 04:27:11;;;;;;;6.82;0.40;;;6.40;99.90;;;;;;6122205;23;20465;-78
2022/02/18 04:29:42;;;;;;;4.57;0.32;;;6.40;99.90;;;;;;6121818;23;20052;-78
2022/02/18 04:32:08;;;;;;;5.28;0.30;;;6.40;99.90;;;;;;6145885;23;20351;-78
2022/02/18 04:34:34;;;;;;;4.28;0.40;;;6.40;99.90;;;;;;6121423;23;20005;-78
2022/02/18 04:36:59;;;;;;;6.78;0.30;;;6.40;99.90;;;;;;6121498;23;20320;-78
2022/02/18 04:39:25;;;;;;;6.22;0.30;;;6.50;99.90;;;;;;6120712;23;20017;-78
2022/02/18 04:41:51;;;;;;;5.63;0.30;;;6.50;99.90;;;;;;6121204;23;20043;-79
2022/02/18 04:44:17;;;;;;;5.57;0.25;;;6.50;99.90;;;;;;6145930;23;20597;-78
2022/02/18 04:46:44;;;;;;;6.28;0.38;;;6.50;99.90;;;;;;6120991;23;20335;-78
2022/02/18 04:49:10;;;;;;;6.18;0.47;;;6.50;99.90;;;;;;6145468;23;20106;-78
2022/02/18 04:51:39;;;;;;;5.97;0.30;;;6.50;99.90;;;;;;6121183;23;20009;-78
2022/02/18 04:54:05;;;;;;;3.55;0.30;;;6.50;99.90;;;;;;6121396;23;20518;-78
2022/02/18 04:56:31;;;;;;;6.43;0.35;;;6.50;99.90;;;;;;6121242;23;20427;-79
2022/02/18 04:58:57;;;;;;;3.72;0.30;;;6.50;99.90;;;;;;6120562;23;20024;-78
2022/02/18 05:01:22;;;;;;;7.45;0.82;;;6.50;99.90;;;;;;6145860;23;20048;-78
2022/02/18 05:03:48;;;;;;;8.05;0.40;;;6.50;99.90;;;;;;6121535;23;20021;-79
2022/02/18 05:06:14;;;;;;;5.32;0.20;;;6.50;99.90;;;;;;6145867;23;20334;-79
2022/02/18 05:08:40;;;;;;;5.22;0.40;;;6.60;99.90;;;;;;6147139;23;20024;-78
2022/02/18 05:11:06;;;;;;;9.23;0.70;;;6.60;99.90;;;;;;6120916;23;20013;-79
2022/02/18 05:13:31;;;;;;;10.75;0.65;;;6.60;99.90;;;;;;6120419;23;20505;-81
2022/02/18 05:15:57;;;;;;;9.45;0.50;;;6.60;99.90;;;;;;6145711;23;20052;-78
2022/02/18 05:18:23;;;;;;;9.82;0.40;;;6.60;99.90;;;;;;6122952;23;20013;-78
2022/02/18 05:20:49;;;;;;;5.93;0.40;;;6.60;99.90;;;;;;6123043;23;20320;-78
2022/02/18 05:23:15;;;;;;;6.63;0.40;;;6.60;99.90;;;;;;6147872;23;20010;-78
2022/02/18 05:25:40;;;;;;;8.02;0.60;;;6.60;99.90;;;;;;6122931;23;20017;-78
2022/02/18 05:28:07;;;;;;;5.88;0.60;;;6.60;99.90;;;;;;6122390;23;20342;-78
2022/02/18 05:30:33;;;;;;;3.92;0.30;;;6.60;99.90;;;;;;6123446;23;20431;-79
2022/02/18 05:32:58;;;;;;;5.70;0.40;;;6.60;99.90;;;;;;6147867;23;20032;-79
2022/02/18 05:35:24;;;;;;;3.97;0.30;;;6.60;99.90;;;;;;6147749;23;20009;-79
2022/02/18 05:37:49;;;;;;;7.88;0.50;;;6.60;99.90;;;;;;6122930;23;20014;-78
2022/02/18 05:40:15;;;;;;;7.30;0.60;;;6.70;99.90;;;;;;6122843;23;20044;-79
2022/02/18 05:42:41;;;;;;;7.38;0.55;;;6.70;99.90;;;;;;6122105;23;20480;-78
2022/02/18 05:45:11;;;;;;;7.15;0.57;;;6.70;99.90;;;;;;6123976;23;20534;-79
2022/02/18 05:47:38;;;;;;;8.65;0.52;;;6.70;99.90;;;;;;6123122;23;20393;-78
2022/02/18 05:50:09;;;;;;;8.13;0.50;;;6.70;99.90;;;;;;6149365;23;20005;-78
2022/02/18 05:52:35;;;;;;;8.75;0.50;;;6.70;99.90;;;;;;6122470;23;20025;-78
2022/02/18 05:55:04;;;;;;;9.20;0.43;;;6.70;99.90;;;;;;6122709;23;20522;-78
2022/02/18 05:57:30;;;;;;;7.97;0.75;;;6.70;99.90;;;;;;6148519;23;20010;-78
2022/02/18 05:59:56;;;;;;;9.80;0.80;;;6.70;99.90;;;;;;6122736;23;20001;-79
2022/02/18 06:02:21;;;;;;;6.38;0.52;;;6.80;99.90;;;;;;6123291;23;20067;-80
2022/02/18 06:04:48;;;;;;;10.10;0.50;;;6.80;99.90;;;;;;6122741;23;20005;-78
2022/02/18 06:07:15;;;;;;;11.60;0.75;;;6.80;99.90;;;;;;6147739;23;20010;-78
2022/02/18 06:09:40;;;;;;;6.90;0.55;;;6.80;99.90;;;;;;6122470;23;20133;-79
2022/02/18 06:12:07;;;;;;;10.63;0.80;;;6.80;99.90;;;;;;6122325;23;20041;-79
2022/02/18 06:14:32;;;;;;;8.18;0.70;;;6.80;99.90;;;;;;6121564;23;20068;-79
2022/02/18 06:16:58;;;;;;;11.90;1.10;;;6.80;99.90;;;;;;6147456;23;20005;-79
2022/02/18 06:19:23;;;;;;;9.40;0.80;;;6.80;99.90;;;;;;6147707;23;20573;-79
2022/02/18 06:21:49;;;;;;;9.30;0.70;;;6.80;99.90;;;;;;6122553;23;20390;-79
2022/02/18 06:24:14;;;;;;;11.35;0.77;;;6.80;99.90;;;;;;6122555;23;20025;-78
2022/02/18 06:26:40;;;;;;;8.40;0.60;;;6.80;99.90;;;;;;6121671;23;20088;-79
2022/02/18 06:29:06;;;;;;;10.85;0.65;;;6.80;99.90;;;;;;6122344;23;20021;-78
2022/02/18 06:31:31;;;;;;;8.10;0.80;;;6.90;99.90;;;;;;6121898;23;20338;-79
2022/02/18 06:33:57;;;;;;;8.85;0.45;;;6.80;99.90;;;;;;6147803;23;20017;-78
2022/02/18 06:36:22;;;;;;;8.07;0.60;;;6.90;99.90;;;;;;6122498;23;20001;-80
2022/02/18 06:38:48;;;;;;;13.43;0.63;;;6.90;99.90;;;;;;6097607;23;20028;-79
2022/02/18 06:41:14;;;;;;;13.80;0.80;;;6.90;99.90;;;;;;6121887;23;20422;-78
2022/02/18 06:43:40;;;;;;;11.23;0.65;;;7.00;99.90;;;;;;6122504;23;20430;-79
2022/02/18 06:46:06;;;;;;;7.97;0.50;;;6.90;99.90;;;;;;6122962;23;20017;-81
2022/02/18 06:48:32;;;;;;;6.63;0.40;;;7.00;99.90;;;;;;6122282;23;20005;-78
2022/02/18 06:50:57;;;;;;;9.75;0.50;;;7.00;99.90;;;;;;6148806;23;20041;-79
2022/02/18 06:53:23;;;;;;;9.60;0.57;;;7.00;99.90;;;;;;6122427;23;20022;-79
2022/02/18 06:55:52;;;;;;;9.02;1.10;;;7.00;99.90;;;;;;6122296;23;20017;-79
2022/02/18 06:58:18;;;;;;;9.63;0.60;;;7.00;99.90;;;;;;6122055;23;20020;-79
2022/02/18 07:00:44;;;;;;;7.07;0.65;;;6.90;99.90;;;;;;6146129;23;20088;-78
2022/02/18 07:03:11;;;;;;;16.15;1.05;;;6.90;99.90;;;;;;6122455;23;20019;-78
2022/02/18 07:05:42;;;;;;;10.18;0.55;;;6.90;99.90;;;;;;6121806;23;20013;-79
2022/02/18 07:08:08;;;;;;;10.57;0.40;;;6.80;99.90;;;;;;6097382;23;20044;-80
2022/02/18 07:10:37;;;;;;;8.43;0.50;;;6.80;99.90;;;;;;6146701;23;20018;-79
2022/02/18 07:13:04;;;;;;;10.32;0.43;;;6.90;99.90;;;;;;6121956;23;20064;-80
2022/02/18 07:15:30;;;;;;;10.43;0.73;;;6.90;99.90;;;;;;6147525;23;20442;-80
2022/02/18 07:17:56;;;;;;;10.18;0.55;;;6.90;99.90;;;;;;6144399;23;20026;-80
2022/02/18 07:20:22;;;;;;;4.45;0.40;;;6.90;99.90;;;;;;6147692;23;20021;-80
2022/02/18 07:22:48;;;;;;;8.25;0.50;;;6.90;99.90;;;;;;6145906;23;20324;-79
2022/02/18 07:25:15;;;;;;;6.97;0.40;;;6.90;99.90;;;;;;6147996;23;20067;-79
2022/02/18 07:27:41;;;;;;;9.93;0.80;;;6.90;99.90;;;;;;6097475;23;20443;-80
2022/02/18 07:30:08;;;;;;;6.57;0.40;;;6.90;99.90;;;;;;6120730;23;20096;-80
2022/02/18 07:32:33;;;;;;;8.15;1.10;;;6.90;99.90;;;;;;6096058;23;20077;-79
2022/02/18 07:34:59;;;;;;;5.85;0.40;;;6.90;99.90;;;;;;6122355;23;19997;-80
2022/02/18 07:37:25;;;;;;;6.85;0.68;;;7.00;99.90;;;;;;6096619;23;20462;-80
2022/02/18 07:39:50;;;;;;;8.30;0.80;;;7.00;99.90;;;;;;6120822;23;20508;-80
2022/02/18 07:42:16;;;;;;;9.27;0.70;;;7.00;99.90;;;;;;6096907;23;20013;-79
2022/02/18 07:44:44;;;;;;;10.10;0.60;;;7.00;99.90;;;;;;6098035;23;20227;-83
2022/02/18 07:47:10;;;;;;;12.82;0.73;;;7.10;99.90;;;;;;6098652;23;20316;-86
2022/02/18 07:49:35;;;;;;;7.47;0.77;;;7.20;99.90;;;;;;6097072;23;20024;-82
2022/02/18 07:52:02;;;;;;;6.63;0.60;;;7.20;99.90;;;;;;6120528;23;20021;-82
2022/02/18 07:54:28;;;;;;;8.55;1.15;;;7.20;99.90;;;;;;6065611;23;20019;-82
2022/02/18 07:56:53;;;;;;;10.35;0.60;;;7.30;99.90;;;;;;6091892;23;20018;-85
2022/02/18 07:59:19;;;;;;;8.60;0.80;;;7.30;99.90;;;;;;6097076;23;20435;-83
2022/02/18 08:01:45;;;;;;;5.97;0.55;;;7.30;99.90;;;;;;6147074;23;20013;-87
2022/02/18 08:04:10;;;;;;;7.15;0.60;;;7.20;99.90;;;;;;6096629;23;20001;-84
2022/02/18 08:06:39;;;;;;;8.13;0.40;;;7.30;99.90;;;;;;6120372;23;20020;-84
2022/02/18 08:09:04;;;;;;;10.73;0.73;;;7.30;99.90;;;;;;6096774;23;20339;-84
2022/02/18 08:11:30;;;;;;;11.00;0.60;;;7.30;99.90;;;;;;6120240;23;20088;-86
2022/02/18 08:13:58;;;;;;;11.90;0.55;;;7.30;99.90;;;;;;6121118;23;20036;-85
2022/02/18 08:16:24;;;;;;;5.97;0.73;;;7.40;99.90;;;;;;6121082;23;20016;-84
2022/02/18 08:18:50;;;;;;;10.68;0.60;;;7.40;99.90;;;;;;6095793;23;20017;-83
2022/02/18 08:21:16;;;;;;;12.60;1.40;;;7.40;99.90;;;;;;6120189;23;20427;-84
2022/02/18 08:23:42;;;;;;;10.18;1.02;;;7.40;99.90;;;;;;6129434;23;20017;-83
2022/02/18 08:26:08;;;;;;;4.60;0.40;;;7.40;99.90;;;;;;6145014;23;20088;-85
2022/02/18 08:28:34;;;;;;;8.60;0.70;;;7.50;99.90;;;;;;6144279;23;20044;-87
2022/02/18 08:30:59;;;;;;;12.40;1.15;;;7.50;99.90;;;;;;6119522;23;20465;-85
2022/02/18 08:33:25;;;;;;;9.70;0.65;;;7.50;99.90;;;;;;6120341;23;20034;-85
2022/02/18 08:35:51;;;;;;;10.60;1.05;;;7.50;99.90;;;;;;6145205;23;20447;-83
2022/02/18 08:38:16;;;;;;;11.93;1.02;;;7.60;99.90;;;;;;6146741;23;20602;-83
2022/02/18 08:40:43;;;;;;;8.98;0.60;;;7.60;99.90;;;;;;6118964;23;20035;-82
2022/02/18 08:43:09;;;;;;;9.32;0.65;;;7.60;99.90;;;;;;6143870;23;20009;-82
2022/02/18 08:45:34;;;;;;;10.63;0.75;;;7.70;99.90;;;;;;6144420;23;20017;-82
2022/02/18 08:48:00;;;;;;;6.32;0.52;;;7.70;99.90;;;;;;6143286;23;20002;-81
2022/02/18 08:50:26;;;;;;;10.23;0.55;;;7.70;99.90;;;;;;6119361;23;20096;-82
2022/02/18 08:52:52;;;;;;;7.20;0.60;;;7.80;99.90;;;;;;6107570;23;20021;-81
2022/02/18 08:55:19;;;;;;;7.38;0.50;;;7.90;99.90;;;;;;6090230;23;20005;-81
2022/02/18 08:57:46;;;;;;;7.78;0.70;;;7.90;99.90;;;;;;6119199;23;20044;-82
2022/02/18 09:00:13;;;;;;;5.72;0.60;;;7.90;99.90;;;;;;6144568;23;20431;-83
2022/02/18 09:02:39;;;;;;;7.88;0.68;;;8.00;99.90;;;;;;6141495;23;20017;-81
2022/02/18 09:05:05;;;;;;;11.98;1.13;;;8.00;99.90;;;;;;6141659;23;20009;-80
2022/02/18 09:07:32;;;;;;;6.32;0.68;;;8.10;99.90;;;;;;6142882;23;20335;-82
2022/02/18 09:09:59;;;;;;;7.40;0.75;;;8.20;99.90;;;;;;6145487;23;20064;-82
2022/02/18 09:12:25;;;;;;;6.63;0.50;;;8.10;99.90;;;;;;6143180;23;20087;-82
2022/02/18 09:14:51;;;;;;;7.10;0.40;;;8.20;99.90;;;;;;6117979;23;20383;-82
2022/02/18 09:17:30;;;;;;;7.85;0.68;;;8.20;99.90;;;;;;6122787;23;20060;-81
2022/02/18 09:19:58;;;;;;;4.30;0.40;;;8.30;99.90;;;;;;6120260;23;20021;-82
2022/02/18 09:22:24;;;;;;;3.75;0.40;;;8.40;99.90;;;;;;6121271;23;20006;-81
2022/02/18 09:24:50;;;;;;;7.95;0.38;;;8.40;99.90;;;;;;6145419;23;20021;-82
2022/02/18 09:27:18;;;;;;;5.07;0.40;;;8.50;99.90;;;;;;6121677;23;20017;-82
2022/02/18 09:29:44;;;;;;;7.18;0.60;;;8.50;99.90;;;;;;6144621;23;20351;-82
2022/02/18 09:32:10;;;;;;;4.75;0.40;;;8.60;99.90;;;;;;6146075;23;20048;-83
2022/02/18 09:34:36;;;;;;;8.38;0.68;;;8.60;99.90;;;;;;6144070;23;20025;-83
2022/02/18 09:37:04;;;;;;;3.65;0.60;;;8.70;99.90;;;;;;6145510;23;20013;-84
2022/02/18 09:39:30;;;;;;;2.30;0.40;;;8.70;99.90;;;;;;6096146;23;20010;-82
2022/02/18 09:41:56;;;;;;;4.13;0.60;;;8.80;99.90;;;;;;6121823;23;20014;-82
2022/02/18 09:44:25;;;;;;;5.20;0.40;;;8.90;99.90;;;;;;6119363;23;20020;-81
2022/02/18 09:46:51;;;;;;;4.65;0.40;;;8.90;99.90;;;;;;6144065;23;20006;-83
2022/02/18 09:49:18;;;;;;;7.55;0.40;;;9.00;99.90;;;;;;6119557;23;20168;-82
2022/02/18 09:51:44;;;;;;;3.50;0.68;;;9.00;99.90;;;;;;6146041;23;20014;-81
2022/02/18 09:54:10;;;;;;;3.88;0.30;;;9.00;99.90;;;;;;6143045;23;20018;-82
2022/02/18 09:56:41;;;;;;;2.45;0.30;;;9.00;99.90;;;;;;6118362;23;20024;-82
2022/02/18 09:59:08;;;;;;;1.42;0.30;;;9.10;99.90;;;;;;6117766;23;20040;-82
2022/02/18 10:01:34;;;;;;;2.90;0.30;;;9.20;99.90;;;;;;6144674;23;20080;-82
2022/02/18 10:04:00;;;;;;;3.40;0.30;;;9.20;99.90;;;;;;6142778;23;20431;-81
2022/02/18 10:06:29;;;;;;;5.75;0.30;;;9.20;99.90;;;;;;6120985;23;20010;-82
2022/02/18 10:08:57;;;;;;;1.23;0.30;;;9.30;99.90;;;;;;6121235;23;20490;-80
2022/02/18 10:11:22;;;;;;;1.73;0.30;;;9.30;99.90;;;;;;6121806;23;20068;-81
2022/02/18 10:13:48;;;;;;;1.38;0.50;;;9.30;99.90;;;;;;6145988;23;20387;-82
2022/02/18 10:16:23;;;;;;;4.28;0.55;;;9.50;99.90;;;;;;6121990;23;20010;-83
2022/02/18 10:18:56;;;;;;;3.35;0.60;;;9.50;99.90;;;;;;6117569;23;20020;-82
2022/02/18 10:21:33;;;;;;;4.97;0.30;;;9.50;99.90;;;;;;6146841;23;20006;-81
2022/02/18 10:24:14;;;;;;;3.58;0.50;;;9.50;99.90;;;;;;6121586;23;20022;-83
2022/02/18 10:26:44;;;;;;;;;;;9.60;99.90;;;;;;6147357;23;20009;-80
2022/02/18 10:29:25;;;;;;;0.88;0.20;;;9.70;99.90;;;;;;6123573;23;20269;-82
2022/02/18 10:32:08;;;;;;;1.35;0.40;;;9.70;99.90;;;;;;6121753;23;20013;-82
2022/02/18 10:34:58;;;;;;;1.50;0.30;;;9.90;99.90;;;;;;6146481;23;20084;-82
2022/02/18 10:37:31;;;;;;;3.47;0.45;;;9.90;99.90;;;;;;6120417;23;20092;-82
2022/02/18 10:40:14;;;;;;;2.80;0.50;;;10.00;99.90;;;;;;6146789;23;20014;-82
2022/02/18 10:42:41;;;;;;;1.30;0.30;;;10.10;99.90;;;;;;6146593;23;20021;-83
2022/02/18 10:45:16;;;;;;;2.10;0.40;;;10.10;99.90;;;;;;6122683;23;20012;-81
2022/02/18 10:47:43;;;;;;;2.50;0.40;;;10.20;99.90;;;;;;6145940;23;20064;-83
2022/02/18 10:50:22;;;;;;;1.63;0.40;;;10.20;99.90;;;;;;6148214;23;20009;-82
2022/02/18 10:53:13;;;;;;;1.00;0.37;;;10.20;99.90;;;;;;6121456;23;20017;-83
2022/02/18 10:55:59;;;;;;;2.28;0.40;;;10.30;99.90;;;;;;6121313;23;20398;-83
2022/02/18 10:58:31;;;;;;;1.88;0.45;;;10.40;99.90;;;;;;6122064;23;20021;-85
2022/02/18 11:01:12;;;;;;;2.47;0.50;;;10.40;99.90;;;;;;6120895;23;20010;-82
2022/02/18 11:03:40;;;;;;;2.33;0.60;;;10.50;99.90;;;;;;6145566;23;20065;-81
2022/02/18 11:06:09;;;;;;;2.38;0.80;;;10.50;99.90;;;;;;6121210;23;20123;-84
2022/02/18 11:08:34;;;;;;;1.83;0.50;;;10.50;99.90;;;;;;6121382;23;20009;-82
2022/02/18 11:11:10;;;;;;;1.58;0.50;;;10.60;99.90;;;;;;6121625;23;20020;-83
2022/02/18 11:13:38;;;;;;;1.70;0.63;;;10.60;99.90;;;;;;6121055;23;20488;-82
2022/02/18 11:16:05;;;;;;;0.82;0.40;;;10.70;99.90;;;;;;6144238;23;20013;-83
2022/02/18 11:18:31;;;;;;;1.45;0.60;;;10.70;99.90;;;;;;6146796;23;20120;-82
2022/02/18 11:20:57;;;;;;;1.15;0.40;;;10.80;99.90;;;;;;6145865;23;20047;-81
2022/02/18 11:23:23;;;;;;;1.48;0.40;;;10.80;99.90;;;;;;6144324;23;20014;-86
2022/02/18 11:25:49;;;;;;;0.93;0.40;;;10.80;99.90;;;;;;6094068;23;20023;-81
2022/02/18 11:28:15;;;;;;;1.92;0.30;;;10.90;99.90;;;;;;6096359;23;20350;-83
2022/02/18 11:30:43;;;;;;;0.80;0.20;;;10.90;99.90;;;;;;6119725;23;20005;-81
2022/02/18 11:33:32;;;;;;;1.95;0.30;;;11.00;99.90;;;;;;6096137;23;20100;-82
2022/02/18 11:36:07;;;;;;;0.55;0.22;;;11.10;99.90;;;;;;6120225;23;20067;-83
2022/02/18 11:39:05;;;;;;;1.33;0.30;;;11.10;99.90;;;;;;6096504;23;20019;-83
2022/02/18 11:41:59;;;;;;;1.92;0.50;;;11.10;99.90;;;;;;6096840;23;20052;-82
2022/02/18 11:44:30;;;;;;;0.80;0.20;;;11.20;99.90;;;;;;6096442;23;20435;-82
2022/02/18 11:47:21;;;;;;;0.30;0.10;;;11.20;99.90;;;;;;6097401;23;20014;-83
2022/02/18 11:49:49;;;;;;;1.65;0.20;;;11.20;99.90;;;;;;6098772;23;20017;-83
2022/02/18 11:52:21;;;;;;;0.43;0.20;;;11.20;99.90;;;;;;6121225;23;20025;-82
2022/02/18 11:54:47;;;;;;;1.27;0.20;;;11.20;99.90;;;;;;6147948;23;20044;-83
2022/02/18 11:57:17;;;;;;;0.93;0.20;;;11.20;99.90;;;;;;6121894;23;20018;-84
2022/02/18 12:00:06;;;;;;;0.60;0.20;;;11.30;99.90;;;;;;6096748;23;20089;-83
2022/02/18 12:02:45;;;;;;;0.45;0.20;;;11.30;99.90;;;;;;6099398;23;20017;-84
2022/02/18 12:05:11;;;;;;;0.70;0.20;;;11.30;99.90;;;;;;6096821;23;20036;-81
2022/02/18 12:07:42;;;;;;;0.70;0.10;;;11.40;99.90;;;;;;6121641;23;20010;-84
2022/02/18 12:10:23;;;;;;;2.05;0.22;;;11.40;99.90;;;;;;6121144;23;20009;-83
2022/02/18 12:12:50;;;;;;;0.38;0.20;;;11.50;99.90;;;;;;6121052;23;20164;-86
2022/02/18 12:15:25;;;;;;;1.75;0.20;;;11.60;99.90;;;;;;6121983;23;20471;-85
2022/02/18 12:17:56;;;;;;;1.48;0.10;;;11.60;99.90;;;;;;6122390;23;20009;-88
2022/02/18 12:20:27;;;;;;;0.40;0.20;;;11.70;99.90;;;;;;6121661;23;20406;-85
2022/02/18 12:22:54;;;;;;;0.40;0.20;;;11.70;99.90;;;;;;6148415;23;20009;-88
2022/02/18 12:25:26;;;;;;;0.57;0.20;;;11.70;99.90;;;;;;6148241;23;20020;-86
2022/02/18 12:28:11;;;;;;;0.32;0.10;;;11.70;99.90;;;;;;6096822;23;20327;-86
2022/02/18 12:30:40;;;;;;;0.30;0.10;;;11.70;99.90;;;;;;6126254;23;20502;-86
2022/02/18 12:33:07;;;;;;;0.30;0.10;;;11.70;99.90;;;;;;6097829;23;20030;-85
2022/02/18 12:35:34;;;;;;;1.13;0.10;;;11.70;99.90;;;;;;6097358;23;20010;-87
2022/02/18 12:38:03;;;;;;;0.20;0.10;;;11.70;99.90;;;;;;6098363;23;20017;-85
2022/02/18 12:40:32;;;;;;;0.50;0.10;;;11.70;99.90;;;;;;6148157;23;20374;-85
2022/02/18 12:43:11;;;;;;;0.35;0.10;;;11.70;99.90;;;;;;6122060;23;20005;-89
2022/02/18 12:46:02;;;;;;;0.82;0.20;;;11.80;99.90;;;;;;6123084;23;20005;-89
2022/02/18 12:48:33;;;;;;;0.77;0.10;;;11.80;99.90;;;;;;6148587;23;20044;-84
2022/02/18 12:51:00;;;;;;;0.57;0.10;;;11.80;99.90;;;;;;6097960;23;20010;-86
2022/02/18 12:53:27;;;;;;;0.85;0.17;;;11.80;99.90;;;;;;6122564;23;20029;-86
2022/02/18 12:55:54;;;;;;;0.40;0.10;;;11.70;99.90;;;;;;6121588;23;20012;-84
2022/02/18 12:58:21;;;;;;;0.43;0.10;;;11.70;99.90;;;;;;6121972;23;20009;-87